Lowell Highlands, MA

10 Minute Time Series

07-22-2019 07:00 PM

TimeTempHumidityDewpointBarometerWindSpeedWindGustWind DirRain
12:10 AM79.5°F72%69.7°F29.780 inHg0 mph3 mph N/A (N/A)0.00 in
12:20 AM79.3°F72%69.5°F29.777 inHg0 mph1 mph N/A (N/A)0.00 in
12:30 AM78.9°F73%69.5°F29.780 inHg1 mph2 mph315° (NW)0.00 in
12:40 AM78.7°F73%69.3°F29.780 inHg0 mph1 mph N/A (N/A)0.00 in
12:50 AM78.3°F73%68.9°F29.783 inHg1 mph3 mph315° (NW)0.00 in
01:00 AM78.0°F73%68.6°F29.783 inHg2 mph3 mph315° (NW)0.00 in
01:10 AM77.9°F73%68.5°F29.787 inHg1 mph2 mph315° (NW)0.00 in
01:20 AM77.7°F74%68.7°F29.790 inHg0 mph1 mph N/A (N/A)0.00 in
01:30 AM77.5°F74%68.5°F29.792 inHg0 mph0 mph N/A (N/A)0.00 in
01:40 AM77.3°F75%68.7°F29.800 inHg0 mph0 mph N/A (N/A)0.00 in
01:50 AM77.0°F76%68.8°F29.798 inHg0 mph0 mph N/A (N/A)0.00 in
02:00 AM76.6°F76%68.5°F29.800 inHg0 mph0 mph N/A (N/A)0.00 in
02:10 AM76.4°F78%69.0°F29.802 inHg0 mph0 mph N/A (N/A)0.00 in
02:20 AM76.0°F78%68.6°F29.801 inHg0 mph3 mph N/A (N/A)0.00 in
02:30 AM75.7°F78%68.3°F29.800 inHg1 mph3 mph315° (NW)0.00 in
02:40 AM75.6°F79%68.6°F29.806 inHg0 mph2 mph N/A (N/A)0.00 in
02:50 AM75.4°F79%68.4°F29.815 inHg0 mph2 mph N/A (N/A)0.00 in
03:00 AM75.2°F79%68.2°F29.815 inHg0 mph1 mph N/A (N/A)0.00 in
03:10 AM75.0°F79%68.0°F29.814 inHg0 mph1 mph N/A (N/A)0.00 in
03:20 AM74.8°F80%68.2°F29.812 inHg0 mph0 mph N/A (N/A)0.00 in
03:30 AM74.4°F79%67.4°F29.810 inHg0 mph1 mph N/A (N/A)0.00 in
03:40 AM74.1°F80%67.5°F29.809 inHg0 mph2 mph N/A (N/A)0.00 in
03:50 AM73.8°F80%67.2°F29.815 inHg0 mph1 mph N/A (N/A)0.00 in
04:00 AM73.6°F81%67.4°F29.813 inHg0 mph2 mph N/A (N/A)0.00 in
04:10 AM73.3°F82%67.5°F29.816 inHg1 mph2 mph315° (NW)0.00 in
04:20 AM73.0°F83%67.5°F29.821 inHg0 mph2 mph N/A (N/A)0.00 in
04:30 AM72.7°F84%67.6°F29.822 inHg0 mph1 mph N/A (N/A)0.00 in
04:40 AM72.5°F85%67.7°F29.823 inHg0 mph1 mph N/A (N/A)0.00 in
04:50 AM72.2°F85%67.4°F29.818 inHg0 mph0 mph N/A (N/A)0.00 in
05:00 AM71.9°F85%67.1°F29.816 inHg0 mph0 mph N/A (N/A)0.00 in
05:10 AM71.8°F85%67.0°F29.820 inHg0 mph0 mph N/A (N/A)0.00 in
05:20 AM71.6°F86%67.2°F29.821 inHg0 mph0 mph N/A (N/A)0.00 in
05:30 AM71.2°F87%67.1°F29.812 inHg1 mph3 mph315° (NW)0.00 in
05:40 AM71.0°F87%66.9°F29.819 inHg0 mph2 mph N/A (N/A)0.00 in
05:50 AM70.9°F87%66.8°F29.821 inHg0 mph1 mph N/A (N/A)0.00 in
06:00 AM70.8°F87%66.7°F29.823 inHg0 mph2 mph N/A (N/A)0.00 in
06:10 AM70.6°F86%66.2°F29.814 inHg1 mph2 mph315° (NW)0.00 in
06:20 AM70.7°F86%66.3°F29.823 inHg1 mph3 mph338° (NNW)0.00 in
06:30 AM70.9°F86%66.5°F29.827 inHg1 mph3 mph338° (NNW)0.00 in
06:40 AM71.2°F85%66.5°F29.830 inHg1 mph2 mph338° (NNW)0.00 in
06:50 AM71.6°F84%66.5°F29.828 inHg1 mph2 mph338° (NNW)0.00 in
07:00 AM72.1°F82%66.3°F29.827 inHg1 mph3 mph338° (NNW)0.00 in
07:10 AM72.9°F80%66.4°F29.832 inHg2 mph5 mph0° (N)0.00 in
07:20 AM73.6°F78%66.3°F29.829 inHg1 mph3 mph0° (N)0.00 in
07:30 AM74.5°F76%66.4°F29.833 inHg1 mph3 mph0° (N)0.00 in
07:40 AM75.1°F74%66.2°F29.836 inHg2 mph5 mph338° (NNW)0.00 in
07:50 AM75.8°F74%66.9°F29.843 inHg1 mph3 mph292° (WNW)0.00 in
08:00 AM76.4°F71%66.3°F29.848 inHg2 mph7 mph0° (N)0.00 in
08:10 AM76.9°F71%66.8°F29.853 inHg2 mph6 mph45° (NE)0.00 in
08:20 AM77.4°F68%66.0°F29.857 inHg2 mph5 mph22° (NNE)0.00 in
08:30 AM77.7°F66%65.4°F29.858 inHg3 mph7 mph0° (N)0.00 in
08:40 AM78.7°F66%66.4°F29.856 inHg2 mph5 mph0° (N)0.00 in
08:50 AM79.1°F64%65.9°F29.855 inHg2 mph6 mph338° (NNW)0.00 in
09:00 AM79.2°F65%66.4°F29.855 inHg3 mph6 mph22° (NNE)0.00 in
09:10 AM78.9°F65%66.1°F29.858 inHg4 mph7 mph0° (N)0.00 in
09:20 AM78.7°F66%66.4°F29.858 inHg3 mph9 mph22° (NNE)0.00 in
09:30 AM79.1°F66%66.7°F29.857 inHg3 mph8 mph22° (NNE)0.00 in
09:40 AM79.1°F66%66.7°F29.855 inHg2 mph7 mph22° (NNE)0.00 in
09:50 AM78.7°F66%66.4°F29.860 inHg2 mph8 mph22° (NNE)0.00 in
10:00 AM78.6°F67%66.7°F29.857 inHg1 mph4 mph112° (ESE)0.00 in
10:10 AM78.8°F67%66.9°F29.852 inHg1 mph4 mph45° (NE)0.00 in
10:20 AM79.4°F65%66.6°F29.847 inHg2 mph8 mph22° (NNE)0.00 in
10:30 AM79.3°F65%66.5°F29.858 inHg2 mph5 mph22° (NNE)0.00 in
10:40 AM79.1°F64%65.9°F29.852 inHg3 mph6 mph22° (NNE)0.00 in
10:50 AM79.9°F64%66.6°F29.850 inHg1 mph3 mph45° (NE)0.00 in
11:00 AM80.7°F63%66.9°F29.853 inHg2 mph5 mph0° (N)0.00 in
11:10 AM80.3°F63%66.5°F29.858 inHg2 mph5 mph0° (N)0.00 in
11:20 AM80.2°F64%66.9°F29.859 inHg2 mph7 mph22° (NNE)0.00 in
11:30 AM79.9°F66%67.5°F29.854 inHg2 mph5 mph22° (NNE)0.00 in
11:40 AM79.6°F66%67.2°F29.857 inHg3 mph8 mph45° (NE)0.00 in
11:50 AM80.2°F66%67.8°F29.856 inHg2 mph6 mph0° (N)0.00 in
12:00 PM80.3°F67%68.3°F29.856 inHg2 mph5 mph0° (N)0.00 in
12:10 PM80.0°F65%67.2°F29.859 inHg2 mph7 mph0° (N)0.00 in
12:20 PM79.8°F65%67.0°F29.858 inHg2 mph7 mph45° (NE)0.00 in
12:30 PM80.5°F63%66.7°F29.860 inHg2 mph8 mph0° (N)0.00 in
12:40 PM80.0°F63%66.2°F29.864 inHg2 mph5 mph22° (NNE)0.00 in
12:50 PM79.4°F64%66.1°F29.859 inHg1 mph5 mph158° (SSE)0.00 in
01:00 PM79.1°F65%66.3°F29.857 inHg1 mph4 mph0° (N)0.00 in
01:10 PM78.5°F65%65.7°F29.862 inHg1 mph4 mph180° (S)0.00 in
01:20 PM78.2°F65%65.5°F29.859 inHg1 mph6 mph112° (ESE)0.00 in
01:30 PM77.9°F65%65.2°F29.860 inHg1 mph4 mph112° (ESE)0.00 in
01:40 PM77.2°F63%63.6°F29.851 inHg3 mph8 mph22° (NNE)0.00 in
01:50 PM76.7°F65%64.0°F29.845 inHg3 mph9 mph22° (NNE)0.00 in
02:00 PM76.2°F68%64.8°F29.846 inHg2 mph6 mph45° (NE)0.00 in
02:10 PM75.4°F73%66.1°F29.839 inHg2 mph8 mph45° (NE)0.00 in
02:20 PM75.0°F75%66.5°F29.835 inHg2 mph9 mph90° (E)0.00 in
02:30 PM74.7°F75%66.2°F29.833 inHg2 mph5 mph270° (W)0.00 in
02:40 PM74.5°F75%66.0°F29.835 inHg1 mph6 mph68° (ENE)0.00 in
02:50 PM74.5°F75%66.0°F29.833 inHg1 mph4 mph0° (N)0.00 in
03:00 PM74.4°F75%65.9°F29.836 inHg2 mph7 mph180° (S)0.00 in
03:10 PM74.1°F74%65.3°F29.838 inHg2 mph6 mph112° (ESE)0.00 in
03:20 PM73.7°F77%66.0°F29.830 inHg1 mph5 mph68° (ENE)0.01 in
03:30 PM72.6°F78%65.3°F29.836 inHg3 mph7 mph22° (NNE)0.00 in
03:40 PM72.0°F80%65.5°F29.836 inHg2 mph5 mph22° (NNE)0.03 in
03:50 PM71.1°F81%65.0°F29.839 inHg2 mph6 mph45° (NE)0.01 in
04:00 PM70.3°F84%65.2°F29.881 inHg2 mph6 mph315° (NW)0.07 in
04:10 PM69.4°F86%65.0°F29.858 inHg2 mph4 mph45° (NE)0.18 in
04:20 PM68.5°F88%64.8°F29.844 inHg2 mph4 mph22° (NNE)0.01 in
04:30 PM68.0°F89%64.6°F29.836 inHg2 mph5 mph45° (NE)0.00 in
04:40 PM67.8°F91%65.1°F29.845 inHg3 mph7 mph338° (NNW)0.01 in
04:50 PM67.9°F91%65.2°F29.831 inHg1 mph4 mph45° (NE)0.00 in
05:00 PM68.0°F92%65.6°F29.836 inHg2 mph4 mph0° (N)0.00 in
05:10 PM68.0°F92%65.6°F29.841 inHg2 mph6 mph22° (NNE)0.00 in
05:20 PM67.9°F92%65.5°F29.835 inHg3 mph8 mph0° (N)0.00 in
05:30 PM67.7°F92%65.3°F29.834 inHg2 mph5 mph45° (NE)0.00 in
05:40 PM67.4°F92%65.0°F29.833 inHg3 mph8 mph0° (N)0.01 in
05:50 PM67.0°F92%64.6°F29.825 inHg3 mph7 mph0° (N)0.02 in
06:00 PM66.7°F93%64.6°F29.824 inHg3 mph7 mph22° (NNE)0.01 in
06:10 PM66.6°F93%64.5°F29.830 inHg3 mph9 mph338° (NNW)0.00 in
06:20 PM66.4°F93%64.3°F29.827 inHg2 mph6 mph0° (N)0.01 in
06:30 PM66.3°F93%64.2°F29.826 inHg2 mph4 mph0° (N)0.02 in
06:40 PM66.2°F94%64.4°F29.812 inHg3 mph6 mph22° (NNE)0.05 in
06:50 PM66.2°F94%64.4°F29.813 inHg2 mph5 mph0° (N)0.01 in
07:00 PM66.1°F94%64.3°F29.805 inHg2 mph6 mph22° (NNE)0.01 in